sensor_id;sensor_type;location;lat;lon;timestamp;pressure;altitude;pressure_sealevel;temperature;humidity
50672;BME280;46021;55.882;37.654;2022-07-06T00:02:08;99450.31;;;17.37;81.63
50672;BME280;46021;55.882;37.654;2022-07-06T00:04:34;99445.16;;;17.35;82.07
50672;BME280;46021;55.882;37.654;2022-07-06T00:07:01;99445.38;;;17.32;81.64
50672;BME280;46021;55.882;37.654;2022-07-06T00:09:28;99448.94;;;17.31;82.00
50672;BME280;46021;55.882;37.654;2022-07-06T00:11:54;99453.53;;;17.27;82.17
50672;BME280;46021;55.882;37.654;2022-07-06T00:14:20;99448.41;;;17.26;81.75
50672;BME280;46021;55.882;37.654;2022-07-06T00:16:47;99443.41;;;17.21;81.60
50672;BME280;46021;55.882;37.654;2022-07-06T00:19:13;99434.75;;;17.19;81.97
50672;BME280;46021;55.882;37.654;2022-07-06T00:21:40;99435.81;;;17.17;82.35
50672;BME280;46021;55.882;37.654;2022-07-06T00:24:07;99426.38;;;17.12;81.83
50672;BME280;46021;55.882;37.654;2022-07-06T00:26:33;99428.25;;;17.10;81.92
50672;BME280;46021;55.882;37.654;2022-07-06T00:28:59;99431.84;;;17.09;82.10
50672;BME280;46021;55.882;37.654;2022-07-06T00:31:26;99427.72;;;17.05;82.80
50672;BME280;46021;55.882;37.654;2022-07-06T00:33:52;99427.72;;;17.05;82.67
50672;BME280;46021;55.882;37.654;2022-07-06T00:36:18;99422.47;;;17.05;82.78
50672;BME280;46021;55.882;37.654;2022-07-06T00:38:44;99415.50;;;17.04;82.47
50672;BME280;46021;55.882;37.654;2022-07-06T00:41:12;99426.03;;;17.04;82.27
50672;BME280;46021;55.882;37.654;2022-07-06T00:43:53;99418.22;;;17.03;82.65
50672;BME280;46021;55.882;37.654;2022-07-06T00:46:23;99420.94;;;17.01;82.53
50672;BME280;46021;55.882;37.654;2022-07-06T00:48:52;99424.34;;;17.03;82.55
50672;BME280;46021;55.882;37.654;2022-07-06T00:51:18;99429.41;;;17.06;82.52
50672;BME280;46021;55.882;37.654;2022-07-06T00:53:46;99432.03;;;17.06;82.82
50672;BME280;46021;55.882;37.654;2022-07-06T00:56:13;99429.41;;;17.06;82.80
50672;BME280;46021;55.882;37.654;2022-07-06T00:58:40;99426.59;;;17.09;82.83
50672;BME280;46021;55.882;37.654;2022-07-06T01:01:06;99432.78;;;17.08;82.67
50672;BME280;46021;55.882;37.654;2022-07-06T01:03:32;99432.78;;;17.08;82.48
50672;BME280;46021;55.882;37.654;2022-07-06T01:05:58;99438.78;;;17.10;82.68
50672;BME280;46021;55.882;37.654;2022-07-06T01:08:25;99435.31;;;17.10;82.12
50672;BME280;46021;55.882;37.654;2022-07-06T01:10:52;99441.25;;;17.13;82.04
50672;BME280;46021;55.882;37.654;2022-07-06T01:13:19;99438.44;;;17.17;82.25
50672;BME280;46021;55.882;37.654;2022-07-06T01:15:45;99434.66;;;17.21;82.73
50672;BME280;46021;55.882;37.654;2022-07-06T01:18:12;99439.72;;;17.24;82.58
50672;BME280;46021;55.882;37.654;2022-07-06T01:20:39;99431.44;;;17.30;82.78
50672;BME280;46021;55.882;37.654;2022-07-06T01:23:06;99432.94;;;17.34;82.24
50672;BME280;46021;55.882;37.654;2022-07-06T01:25:32;99430.88;;;17.39;82.50
50672;BME280;46021;55.882;37.654;2022-07-06T01:27:59;99437.63;;;17.43;82.35
50672;BME280;46021;55.882;37.654;2022-07-06T01:30:25;99441.00;;;17.45;82.10
50672;BME280;46021;55.882;37.654;2022-07-06T01:32:52;99446.06;;;17.48;81.84
50672;BME280;46021;55.882;37.654;2022-07-06T01:35:18;99439.75;;;17.51;82.25
50672;BME280;46021;55.882;37.654;2022-07-06T01:37:46;99440.59;;;17.51;81.65
50672;BME280;46021;55.882;37.654;2022-07-06T01:40:13;99436.38;;;17.49;81.58
50672;BME280;46021;55.882;37.654;2022-07-06T01:42:40;99439.94;;;17.48;81.88
50672;BME280;46021;55.882;37.654;2022-07-06T01:45:08;99438.38;;;17.45;81.48
50672;BME280;46021;55.882;37.654;2022-07-06T01:47:35;99434.97;;;17.43;81.93
50672;BME280;46021;55.882;37.654;2022-07-06T01:50:04;99434.97;;;17.43;81.86
50672;BME280;46021;55.882;37.654;2022-07-06T01:52:33;99440.03;;;17.46;82.04
50672;BME280;46021;55.882;37.654;2022-07-06T01:55:02;99435.50;;;17.48;81.75
50672;BME280;46021;55.882;37.654;2022-07-06T01:57:30;99444.19;;;17.50;81.29
50672;BME280;46021;55.882;37.654;2022-07-06T01:59:56;99452.44;;;17.59;82.25
50672;BME280;46021;55.882;37.654;2022-07-06T02:02:23;99454.47;;;17.68;82.09
50672;BME280;46021;55.882;37.654;2022-07-06T02:04:49;99458.94;;;17.80;81.57
50672;BME280;46021;55.882;37.654;2022-07-06T02:07:16;99459.34;;;17.88;81.29
50672;BME280;46021;55.882;37.654;2022-07-06T02:09:42;99458.19;;;17.92;80.98
50672;BME280;46021;55.882;37.654;2022-07-06T02:12:10;99452.50;;;17.99;81.20
50672;BME280;46021;55.882;37.654;2022-07-06T02:14:36;99462.84;;;18.02;80.88
50672;BME280;46021;55.882;37.654;2022-07-06T02:17:03;99458.31;;;18.04;81.02
50672;BME280;46021;55.882;37.654;2022-07-06T02:19:29;99451.16;;;18.06;80.79
50672;BME280;46021;55.882;37.654;2022-07-06T02:21:56;99458.09;;;18.07;80.77
50672;BME280;46021;55.882;37.654;2022-07-06T02:24:22;99459.81;;;18.08;80.97
50672;BME280;46021;55.882;37.654;2022-07-06T02:26:49;99460.97;;;18.04;80.50
50672;BME280;46021;55.882;37.654;2022-07-06T02:29:16;99469.06;;;18.01;80.93
50672;BME280;46021;55.882;37.654;2022-07-06T02:31:42;99464.94;;;17.97;81.00
50672;BME280;46021;55.882;37.654;2022-07-06T02:34:09;99467.78;;;17.93;80.62
50672;BME280;46021;55.882;37.654;2022-07-06T02:36:35;99462.72;;;17.90;81.11
50672;BME280;46021;55.882;37.654;2022-07-06T02:39:02;99461.84;;;17.90;81.40
50672;BME280;46021;55.882;37.654;2022-07-06T02:41:29;99467.91;;;18.05;81.14
50672;BME280;46021;55.882;37.654;2022-07-06T02:43:55;99472.06;;;18.22;81.11
50672;BME280;46021;55.882;37.654;2022-07-06T02:46:22;99471.47;;;18.44;80.71
50672;BME280;46021;55.882;37.654;2022-07-06T02:48:49;99478.88;;;18.64;80.64
50672;BME280;46021;55.882;37.654;2022-07-06T02:51:17;99469.59;;;18.84;80.30
50672;BME280;46021;55.882;37.654;2022-07-06T02:53:43;99464.84;;;19.02;79.88
50672;BME280;46021;55.882;37.654;2022-07-06T02:56:09;99464.47;;;19.20;79.23
50672;BME280;46021;55.882;37.654;2022-07-06T02:58:36;99472.03;;;19.37;79.33
50672;BME280;46021;55.882;37.654;2022-07-06T03:01:03;99461.22;;;19.53;78.93
50672;BME280;46021;55.882;37.654;2022-07-06T03:03:30;99463.28;;;19.74;78.18
50672;BME280;46021;55.882;37.654;2022-07-06T03:05:58;99456.81;;;20.02;78.74
50672;BME280;46021;55.882;37.654;2022-07-06T03:08:24;99456.75;;;20.37;78.95
50672;BME280;46021;55.882;37.654;2022-07-06T03:10:50;99441.31;;;20.67;78.64
50672;BME280;46021;55.882;37.654;2022-07-06T03:13:17;99450.34;;;21.09;78.44
50672;BME280;46021;55.882;37.654;2022-07-06T03:15:44;99433.34;;;21.46;77.25
50672;BME280;46021;55.882;37.654;2022-07-06T03:18:11;99439.25;;;21.82;77.26
50672;BME280;46021;55.882;37.654;2022-07-06T03:20:38;99438.88;;;22.07;75.43
50672;BME280;46021;55.882;37.654;2022-07-06T03:23:07;99434.91;;;22.34;74.20
50672;BME280;46021;55.882;37.654;2022-07-06T03:25:35;99437.16;;;22.60;73.25
50672;BME280;46021;55.882;37.654;2022-07-06T03:28:01;99439.66;;;22.82;72.11
50672;BME280;46021;55.882;37.654;2022-07-06T03:30:28;99433.06;;;23.07;71.20
50672;BME280;46021;55.882;37.654;2022-07-06T03:32:56;99443.34;;;23.41;71.38
50672;BME280;46021;55.882;37.654;2022-07-06T03:35:24;99443.94;;;23.74;69.35
50672;BME280;46021;55.882;37.654;2022-07-06T03:37:52;99442.72;;;24.07;68.90
50672;BME280;46021;55.882;37.654;2022-07-06T03:40:21;99437.38;;;24.37;68.29
50672;BME280;46021;55.882;37.654;2022-07-06T03:42:50;99444.19;;;24.59;67.35
50672;BME280;46021;55.882;37.654;2022-07-06T03:45:16;99448.34;;;24.81;66.65
50672;BME280;46021;55.882;37.654;2022-07-06T03:47:42;99445.84;;;25.07;66.40
50672;BME280;46021;55.882;37.654;2022-07-06T03:50:10;99451.50;;;25.32;64.47
50672;BME280;46021;55.882;37.654;2022-07-06T03:52:37;99447.34;;;25.47;62.43
50672;BME280;46021;55.882;37.654;2022-07-06T03:55:09;99436.06;;;25.53;60.82
50672;BME280;46021;55.882;37.654;2022-07-06T03:57:37;99444.84;;;25.63;60.49
50672;BME280;46021;55.882;37.654;2022-07-06T04:00:05;99447.22;;;25.84;60.41
50672;BME280;46021;55.882;37.654;2022-07-06T04:02:40;99448.34;;;26.18;60.09
50672;BME280;46021;55.882;37.654;2022-07-06T04:05:11;99448.63;;;26.59;60.10
50672;BME280;46021;55.882;37.654;2022-07-06T04:07:38;99441.31;;;26.87;59.00
50672;BME280;46021;55.882;37.654;2022-07-06T04:10:05;99438.94;;;27.18;59.04
50672;BME280;46021;55.882;37.654;2022-07-06T04:12:39;99444.72;;;27.48;56.20
50672;BME280;46021;55.882;37.654;2022-07-06T04:15:07;99437.25;;;27.76;56.33
50672;BME280;46021;55.882;37.654;2022-07-06T04:17:34;99446.34;;;28.08;55.84
50672;BME280;46021;55.882;37.654;2022-07-06T04:20:24;99445.81;;;28.37;54.18
50672;BME280;46021;55.882;37.654;2022-07-06T04:22:51;99442.44;;;28.68;54.41
50672;BME280;46021;55.882;37.654;2022-07-06T04:25:20;99436.66;;;28.88;53.12
50672;BME280;46021;55.882;37.654;2022-07-06T04:27:47;99439.13;;;28.97;52.06
50672;BME280;46021;55.882;37.654;2022-07-06T04:30:13;99436.59;;;29.04;51.53
50672;BME280;46021;55.882;37.654;2022-07-06T04:32:42;99439.66;;;28.93;50.97
50672;BME280;46021;55.882;37.654;2022-07-06T04:35:09;99431.09;;;28.97;51.11
50672;BME280;46021;55.882;37.654;2022-07-06T04:37:36;99431.88;;;29.14;51.08
50672;BME280;46021;55.882;37.654;2022-07-06T04:40:03;99435.16;;;29.33;50.60
50672;BME280;46021;55.882;37.654;2022-07-06T04:42:30;99434.59;;;29.69;50.18
50672;BME280;46021;55.882;37.654;2022-07-06T04:44:57;99430.53;;;29.81;49.46
50672;BME280;46021;55.882;37.654;2022-07-06T04:47:24;99435.34;;;29.86;48.51
50672;BME280;46021;55.882;37.654;2022-07-06T04:49:51;99442.75;;;29.84;48.20
50672;BME280;46021;55.882;37.654;2022-07-06T04:52:18;99437.13;;;29.93;47.99
50672;BME280;46021;55.882;37.654;2022-07-06T04:54:44;99437.94;;;30.17;48.34
50672;BME280;46021;55.882;37.654;2022-07-06T04:57:12;99439.03;;;30.46;47.76
50672;BME280;46021;55.882;37.654;2022-07-06T04:59:40;99434.34;;;30.78;47.22
50672;BME280;46021;55.882;37.654;2022-07-06T05:02:07;99440.75;;;30.92;46.12
50672;BME280;46021;55.882;37.654;2022-07-06T05:04:34;99440.41;;;30.95;45.53
50672;BME280;46021;55.882;37.654;2022-07-06T05:07:01;99431.53;;;31.16;44.93
50672;BME280;46021;55.882;37.654;2022-07-06T05:09:27;99427.41;;;31.50;42.51
50672;BME280;46021;55.882;37.654;2022-07-06T05:11:54;99423.34;;;31.60;43.67
50672;BME280;46021;55.882;37.654;2022-07-06T05:14:20;99426.94;;;31.67;43.67
50672;BME280;46021;55.882;37.654;2022-07-06T05:16:46;99424.56;;;32.01;41.63
50672;BME280;46021;55.882;37.654;2022-07-06T05:19:14;99425.06;;;32.04;42.58
50672;BME280;46021;55.882;37.654;2022-07-06T05:21:40;99421.75;;;32.09;43.00
50672;BME280;46021;55.882;37.654;2022-07-06T05:24:08;99418.28;;;31.94;42.62
50672;BME280;46021;55.882;37.654;2022-07-06T05:26:34;99413.84;;;31.64;41.50
50672;BME280;46021;55.882;37.654;2022-07-06T05:29:01;99415.13;;;31.90;42.72
50672;BME280;46021;55.882;37.654;2022-07-06T05:31:27;99414.38;;;32.18;42.42
50672;BME280;46021;55.882;37.654;2022-07-06T05:33:54;99424.63;;;32.57;42.12
50672;BME280;46021;55.882;37.654;2022-07-06T05:36:22;99416.50;;;32.92;41.32
50672;BME280;46021;55.882;37.654;2022-07-06T05:38:48;99413.69;;;33.14;40.08
50672;BME280;46021;55.882;37.654;2022-07-06T05:41:14;99407.81;;;33.52;39.69
50672;BME280;46021;55.882;37.654;2022-07-06T05:43:41;99420.50;;;33.65;39.09
50672;BME280;46021;55.882;37.654;2022-07-06T05:46:07;99421.38;;;33.78;37.40
50672;BME280;46021;55.882;37.654;2022-07-06T05:48:35;99415.97;;;33.92;38.44
50672;BME280;46021;55.882;37.654;2022-07-06T05:51:20;99416.81;;;33.92;38.17
50672;BME280;46021;55.882;37.654;2022-07-06T05:53:48;99414.53;;;33.83;38.13
50672;BME280;46021;55.882;37.654;2022-07-06T05:56:14;99411.19;;;34.27;38.23
50672;BME280;46021;55.882;37.654;2022-07-06T05:58:42;99417.41;;;34.54;37.47
50672;BME280;46021;55.882;37.654;2022-07-06T06:01:08;99407.19;;;34.56;36.70
50672;BME280;46021;55.882;37.654;2022-07-06T06:03:37;99415.97;;;34.45;36.78
50672;BME280;46021;55.882;37.654;2022-07-06T06:06:05;99418.06;;;34.43;37.01
50672;BME280;46021;55.882;37.654;2022-07-06T06:08:32;99414.97;;;34.26;37.17
50672;BME280;46021;55.882;37.654;2022-07-06T06:11:00;99419.28;;;34.47;37.33
50672;BME280;46021;55.882;37.654;2022-07-06T06:13:28;99419.97;;;34.29;37.20
50672;BME280;46021;55.882;37.654;2022-07-06T06:15:54;99420.78;;;34.30;36.21
50672;BME280;46021;55.882;37.654;2022-07-06T06:18:21;99407.19;;;34.56;37.24
50672;BME280;46021;55.882;37.654;2022-07-06T06:20:48;99409.69;;;34.71;37.16
50672;BME280;46021;55.882;37.654;2022-07-06T06:23:14;99414.47;;;34.63;37.23
50672;BME280;46021;55.882;37.654;2022-07-06T06:25:41;99399.63;;;34.85;37.15
50672;BME280;46021;55.882;37.654;2022-07-06T06:28:10;99402.41;;;35.17;36.71
50672;BME280;46021;55.882;37.654;2022-07-06T06:30:37;99403.88;;;34.68;36.21
50672;BME280;46021;55.882;37.654;2022-07-06T06:33:08;99383.88;;;33.49;37.09
50672;BME280;46021;55.882;37.654;2022-07-06T06:35:36;99401.63;;;32.40;37.22
50672;BME280;46021;55.882;37.654;2022-07-06T06:38:02;99397.94;;;31.12;38.75
50672;BME280;46021;55.882;37.654;2022-07-06T06:40:29;99394.38;;;30.22;39.89
50672;BME280;46021;55.882;37.654;2022-07-06T06:42:55;99402.69;;;29.66;41.09
50672;BME280;46021;55.882;37.654;2022-07-06T06:45:24;99400.53;;;29.07;41.35
50672;BME280;46021;55.882;37.654;2022-07-06T06:47:50;99404.91;;;28.52;42.46
50672;BME280;46021;55.882;37.654;2022-07-06T06:50:16;99405.81;;;28.03;43.76
50672;BME280;46021;55.882;37.654;2022-07-06T06:52:43;99392.88;;;27.82;43.32
50672;BME280;46021;55.882;37.654;2022-07-06T06:55:09;99396.56;;;27.65;43.60
50672;BME280;46021;55.882;37.654;2022-07-06T06:57:36;99401.41;;;27.61;43.73
50672;BME280;46021;55.882;37.654;2022-07-06T07:00:05;99392.19;;;27.55;43.87
50672;BME280;46021;55.882;37.654;2022-07-06T07:02:33;99388.19;;;27.59;44.38
50672;BME280;46021;55.882;37.654;2022-07-06T07:04:59;99392.53;;;27.69;44.71
50672;BME280;46021;55.882;37.654;2022-07-06T07:07:26;99399.59;;;27.70;45.25
50672;BME280;46021;55.882;37.654;2022-07-06T07:09:52;99389.19;;;27.67;45.15
50672;BME280;46021;55.882;37.654;2022-07-06T07:12:19;99394.22;;;27.70;44.80
50672;BME280;46021;55.882;37.654;2022-07-06T07:14:45;99397.56;;;27.72;45.12
50672;BME280;46021;55.882;37.654;2022-07-06T07:17:13;99398.09;;;27.75;45.34
50672;BME280;46021;55.882;37.654;2022-07-06T07:19:40;99401.25;;;27.87;45.64
50672;BME280;46021;55.882;37.654;2022-07-06T07:22:06;99401.63;;;28.00;45.66
50672;BME280;46021;55.882;37.654;2022-07-06T07:24:33;99396.59;;;28.14;45.77
50672;BME280;46021;55.882;37.654;2022-07-06T07:26:59;99397.06;;;28.34;45.83
50672;BME280;46021;55.882;37.654;2022-07-06T07:29:26;99389.34;;;28.39;45.01
50672;BME280;46021;55.882;37.654;2022-07-06T07:31:52;99400.91;;;28.31;44.56
50672;BME280;46021;55.882;37.654;2022-07-06T07:34:19;99395.94;;;28.04;44.73
50672;BME280;46021;55.882;37.654;2022-07-06T07:36:46;99393.25;;;27.95;44.78
50672;BME280;46021;55.882;37.654;2022-07-06T07:39:12;99388.56;;;27.89;44.92
50672;BME280;46021;55.882;37.654;2022-07-06T07:41:38;99396.59;;;27.81;44.88
50672;BME280;46021;55.882;37.654;2022-07-06T07:44:05;99391.72;;;27.85;44.79
50672;BME280;46021;55.882;37.654;2022-07-06T07:46:31;99388.19;;;27.76;44.65
50672;BME280;46021;55.882;37.654;2022-07-06T07:48:57;99391.22;;;27.81;44.61
50672;BME280;46021;55.882;37.654;2022-07-06T07:51:24;99391.22;;;27.81;44.32
50672;BME280;46021;55.882;37.654;2022-07-06T07:53:51;99397.22;;;27.75;44.43
50672;BME280;46021;55.882;37.654;2022-07-06T07:56:17;99395.72;;;27.72;44.09
50672;BME280;46021;55.882;37.654;2022-07-06T07:58:44;99392.88;;;27.74;43.84
50672;BME280;46021;55.882;37.654;2022-07-06T08:01:12;99397.56;;;27.64;44.08
50672;BME280;46021;55.882;37.654;2022-07-06T08:03:38;99387.16;;;27.52;44.22
50672;BME280;46021;55.882;37.654;2022-07-06T08:06:05;99393.34;;;27.36;44.42
50672;BME280;46021;55.882;37.654;2022-07-06T08:08:31;99389.84;;;27.36;44.90
50672;BME280;46021;55.882;37.654;2022-07-06T08:10:58;99392.34;;;27.46;44.68
50672;BME280;46021;55.882;37.654;2022-07-06T08:13:24;99386.50;;;27.50;44.80
50672;BME280;46021;55.882;37.654;2022-07-06T08:15:51;99386.34;;;27.52;44.85
50672;BME280;46021;55.882;37.654;2022-07-06T08:18:17;99380.66;;;27.55;44.68
50672;BME280;46021;55.882;37.654;2022-07-06T08:20:44;99390.69;;;27.61;44.49
50672;BME280;46021;55.882;37.654;2022-07-06T08:23:10;99390.88;;;27.68;44.56
50672;BME280;46021;55.882;37.654;2022-07-06T08:25:37;99385.50;;;27.84;44.50
50672;BME280;46021;55.882;37.654;2022-07-06T08:28:04;99381.53;;;28.05;44.76
50672;BME280;46021;55.882;37.654;2022-07-06T08:30:30;99392.06;;;28.06;43.85
50672;BME280;46021;55.882;37.654;2022-07-06T08:33:00;99391.22;;;28.22;43.73
50672;BME280;46021;55.882;37.654;2022-07-06T08:35:27;99387.19;;;28.18;43.94
50672;BME280;46021;55.882;37.654;2022-07-06T08:37:54;99379.00;;;28.19;43.83
50672;BME280;46021;55.882;37.654;2022-07-06T08:40:20;99387.66;;;28.38;43.61
50672;BME280;46021;55.882;37.654;2022-07-06T08:42:47;99383.81;;;28.49;43.43
50672;BME280;46021;55.882;37.654;2022-07-06T08:45:20;99382.81;;;28.42;43.31
50672;BME280;46021;55.882;37.654;2022-07-06T08:47:49;99385.13;;;28.45;43.11
50672;BME280;46021;55.882;37.654;2022-07-06T08:50:15;99371.22;;;28.41;43.13
50672;BME280;46021;55.882;37.654;2022-07-06T08:52:42;99376.03;;;28.70;42.95
50672;BME280;46021;55.882;37.654;2022-07-06T08:55:09;99366.13;;;29.10;42.88
50672;BME280;46021;55.882;37.654;2022-07-06T08:57:36;99373.41;;;29.79;42.97
50672;BME280;46021;55.882;37.654;2022-07-06T09:00:06;99373.03;;;31.09;42.85
50672;BME280;46021;55.882;37.654;2022-07-06T09:02:34;99367.06;;;32.50;40.64
50672;BME280;46021;55.882;37.654;2022-07-06T09:05:02;99371.34;;;33.21;37.00
50672;BME280;46021;55.882;37.654;2022-07-06T09:07:30;99369.56;;;32.93;36.14
50672;BME280;46021;55.882;37.654;2022-07-06T09:09:59;99363.31;;;32.16;36.68
50672;BME280;46021;55.882;37.654;2022-07-06T09:12:27;99364.97;;;31.67;37.83
50672;BME280;46021;55.882;37.654;2022-07-06T09:14:54;99356.06;;;32.17;38.12
50672;BME280;46021;55.882;37.654;2022-07-06T09:17:21;99362.81;;;32.69;36.27
50672;BME280;46021;55.882;37.654;2022-07-06T09:19:52;99360.81;;;33.46;36.37
50672;BME280;46021;55.882;37.654;2022-07-06T09:22:26;99359.28;;;34.64;34.43
50672;BME280;46021;55.882;37.654;2022-07-06T09:24:52;99345.81;;;35.72;33.84
50672;BME280;46021;55.882;37.654;2022-07-06T09:27:19;99340.59;;;36.58;32.21
50672;BME280;46021;55.882;37.654;2022-07-06T09:29:45;99353.06;;;36.66;30.99
50672;BME280;46021;55.882;37.654;2022-07-06T09:32:14;99347.31;;;36.74;30.38
50672;BME280;46021;55.882;37.654;2022-07-06T09:34:46;99342.38;;;37.32;30.50
50672;BME280;46021;55.882;37.654;2022-07-06T09:37:14;99344.59;;;37.77;29.83
50672;BME280;46021;55.882;37.654;2022-07-06T09:39:40;99346.41;;;37.83;29.49
50672;BME280;46021;55.882;37.654;2022-07-06T09:42:08;99351.34;;;37.74;30.31
50672;BME280;46021;55.882;37.654;2022-07-06T09:44:36;99338.59;;;37.87;29.45
50672;BME280;46021;55.882;37.654;2022-07-06T09:47:04;99344.50;;;38.07;29.34
50672;BME280;46021;55.882;37.654;2022-07-06T09:49:31;99337.53;;;37.64;29.56
50672;BME280;46021;55.882;37.654;2022-07-06T09:51:59;99338.59;;;36.10;30.10
50672;BME280;46021;55.882;37.654;2022-07-06T09:54:27;99342.91;;;34.45;31.69
50672;BME280;46021;55.882;37.654;2022-07-06T09:56:54;99338.38;;;33.72;32.90
50672;BME280;46021;55.882;37.654;2022-07-06T09:59:23;99349.41;;;33.64;33.27
50672;BME280;46021;55.882;37.654;2022-07-06T10:01:51;99340.69;;;33.75;33.79
50672;BME280;46021;55.882;37.654;2022-07-06T10:04:18;99341.97;;;34.78;33.01
50672;BME280;46021;55.882;37.654;2022-07-06T10:06:46;99328.31;;;35.68;32.05
50672;BME280;46021;55.882;37.654;2022-07-06T10:09:13;99331.94;;;36.68;30.60
50672;BME280;46021;55.882;37.654;2022-07-06T10:11:44;99328.22;;;36.62;29.62
50672;BME280;46021;55.882;37.654;2022-07-06T10:14:12;99329.22;;;36.86;29.64
50672;BME280;46021;55.882;37.654;2022-07-06T10:16:41;99313.31;;;37.02;29.73
50672;BME280;46021;55.882;37.654;2022-07-06T10:19:09;99327.69;;;36.91;29.33
50672;BME280;46021;55.882;37.654;2022-07-06T10:21:37;99323.53;;;36.88;29.31
50672;BME280;46021;55.882;37.654;2022-07-06T10:24:05;99324.84;;;36.67;29.37
50672;BME280;46021;55.882;37.654;2022-07-06T10:26:32;99325.41;;;36.87;29.29
50672;BME280;46021;55.882;37.654;2022-07-06T10:29:00;99312.94;;;37.17;29.31
50672;BME280;46021;55.882;37.654;2022-07-06T10:31:27;99313.31;;;37.02;28.89
50672;BME280;46021;55.882;37.654;2022-07-06T10:33:56;99311.06;;;37.29;28.79
50672;BME280;46021;55.882;37.654;2022-07-06T10:36:23;99308.25;;;36.57;29.30
50672;BME280;46021;55.882;37.654;2022-07-06T10:38:51;99315.78;;;36.55;29.98
50672;BME280;46021;55.882;37.654;2022-07-06T10:41:18;99306.28;;;36.45;29.92
50672;BME280;46021;55.882;37.654;2022-07-06T10:43:46;99299.22;;;36.01;30.10
50672;BME280;46021;55.882;37.654;2022-07-06T10:46:14;99301.03;;;35.00;30.55
50672;BME280;46021;55.882;37.654;2022-07-06T10:48:43;99310.72;;;33.84;31.89
50672;BME280;46021;55.882;37.654;2022-07-06T10:51:11;99306.31;;;33.16;33.62
50672;BME280;46021;55.882;37.654;2022-07-06T10:53:39;99309.88;;;33.56;33.38
50672;BME280;46021;55.882;37.654;2022-07-06T10:56:07;99308.63;;;33.92;32.97
50672;BME280;46021;55.882;37.654;2022-07-06T10:58:45;99303.16;;;34.39;31.92
50672;BME280;46021;55.882;37.654;2022-07-06T11:01:14;99293.22;;;34.06;32.31
50672;BME280;46021;55.882;37.654;2022-07-06T11:03:42;99288.69;;;33.67;32.60
50672;BME280;46021;55.882;37.654;2022-07-06T11:06:14;99289.50;;;33.27;32.90
50672;BME280;46021;55.882;37.654;2022-07-06T11:08:42;99291.97;;;33.55;32.99
50672;BME280;46021;55.882;37.654;2022-07-06T11:11:12;99290.38;;;33.74;32.73
50672;BME280;46021;55.882;37.654;2022-07-06T11:13:53;99289.69;;;34.06;32.15
50672;BME280;46021;55.882;37.654;2022-07-06T11:16:22;99285.34;;;33.85;32.33
50672;BME280;46021;55.882;37.654;2022-07-06T11:18:50;99291.94;;;34.35;32.06
50672;BME280;46021;55.882;37.654;2022-07-06T11:21:33;99287.69;;;34.60;31.78
50672;BME280;46021;55.882;37.654;2022-07-06T11:24:00;99284.88;;;34.86;31.51
50672;BME280;46021;55.882;37.654;2022-07-06T11:26:27;99275.44;;;34.95;30.89
50672;BME280;46021;55.882;37.654;2022-07-06T11:28:54;99274.66;;;34.88;30.75
50672;BME280;46021;55.882;37.654;2022-07-06T11:31:21;99275.38;;;34.64;31.20
50672;BME280;46021;55.882;37.654;2022-07-06T11:33:48;99279.78;;;34.97;30.85
50672;BME280;46021;55.882;37.654;2022-07-06T11:36:16;99268.97;;;35.28;31.05
50672;BME280;46021;55.882;37.654;2022-07-06T11:38:44;99279.00;;;35.78;30.56
50672;BME280;46021;55.882;37.654;2022-07-06T11:41:11;99276.00;;;36.30;29.80
50672;BME280;46021;55.882;37.654;2022-07-06T11:43:40;99271.91;;;36.88;29.21
50672;BME280;46021;55.882;37.654;2022-07-06T11:46:23;99263.59;;;37.13;28.18
50672;BME280;46021;55.882;37.654;2022-07-06T11:48:51;99254.28;;;36.30;27.99
50672;BME280;46021;55.882;37.654;2022-07-06T11:51:18;99256.91;;;35.75;28.43
50672;BME280;46021;55.882;37.654;2022-07-06T11:53:45;99251.31;;;35.44;29.55
50672;BME280;46021;55.882;37.654;2022-07-06T11:56:13;99257.03;;;35.36;29.55
50672;BME280;46021;55.882;37.654;2022-07-06T11:58:40;99259.47;;;35.19;30.25
50672;BME280;46021;55.882;37.654;2022-07-06T12:01:10;99254.94;;;35.06;30.58
50672;BME280;46021;55.882;37.654;2022-07-06T12:03:38;99259.84;;;35.16;30.61
50672;BME280;46021;55.882;37.654;2022-07-06T12:06:05;99258.72;;;34.99;30.60
50672;BME280;46021;55.882;37.654;2022-07-06T12:08:40;99250.75;;;34.79;29.53
50672;BME280;46021;55.882;37.654;2022-07-06T12:11:07;99245.28;;;34.40;30.56
50672;BME280;46021;55.882;37.654;2022-07-06T12:13:36;99256.59;;;34.10;30.41
50672;BME280;46021;55.882;37.654;2022-07-06T12:16:09;99243.56;;;33.47;31.11
50672;BME280;46021;55.882;37.654;2022-07-06T12:18:38;99245.13;;;32.81;32.39
50672;BME280;46021;55.882;37.654;2022-07-06T12:21:07;99242.72;;;32.45;32.25
50672;BME280;46021;55.882;37.654;2022-07-06T12:23:41;99240.19;;;32.37;32.63
50672;BME280;46021;55.882;37.654;2022-07-06T12:26:08;99237.78;;;32.55;32.71
50672;BME280;46021;55.882;37.654;2022-07-06T12:28:35;99243.22;;;32.62;32.90
50672;BME280;46021;55.882;37.654;2022-07-06T12:31:02;99235.34;;;32.67;33.24
50672;BME280;46021;55.882;37.654;2022-07-06T12:33:28;99235.91;;;32.56;32.97
50672;BME280;46021;55.882;37.654;2022-07-06T12:35:55;99234.22;;;32.55;33.31
50672;BME280;46021;55.882;37.654;2022-07-06T12:38:23;99227.06;;;32.69;33.25
50672;BME280;46021;55.882;37.654;2022-07-06T12:40:49;99230.41;;;32.91;33.25
50672;BME280;46021;55.882;37.654;2022-07-06T12:43:36;99226.47;;;32.93;32.66
50672;BME280;46021;55.882;37.654;2022-07-06T12:46:28;99221.22;;;32.72;32.57
50672;BME280;46021;55.882;37.654;2022-07-06T12:48:56;99222.88;;;32.59;32.34
50672;BME280;46021;55.882;37.654;2022-07-06T12:51:24;99219.19;;;32.32;32.24
50672;BME280;46021;55.882;37.654;2022-07-06T12:53:50;99215.00;;;32.16;32.51